ADDS METAR Data INFO
IDs: Format: Raw Decoded Include TAF

Data at: 1147 UTC 23 Jun 2018

KMLI 231129Z 00000KT 10SM BKN016 BKN034 OVC055 18/16 A2975 RMK AO2 T01830161
KMLI 231120Z 00000KT 10SM SCT016 BKN034 OVC050 18/16 A2975 RMK AO2 T01830161
KMLI 231052Z 02003KT 10SM BKN019 OVC026 18/16 A2975 RMK AO2 SLP072 T01830156
KMLI 230952Z AUTO 00000KT 10SM OVC021 18/15 A2975 RMK AO2 SLP072 T01830150
KMLI 230852Z AUTO 31003KT 10SM OVC020 18/16 A2976 RMK AO2 SLP074 T01830156 50004
KMLI 230752Z AUTO 33004KT 10SM OVC022 18/17 A2977 RMK AO2 SLP077 T01830167
KMLI 230652Z AUTO 25006KT 8SM OVC023 18/17 A2976 RMK AO2 SLP075 T01830172
KMLI 230552Z AUTO 27003KT 9SM OVC028 18/17 A2974 RMK AO2 SLP069 60000 T01780172 10200 20178 402280172 58005
KMLI 230452Z AUTO 06003KT 9SM OVC026 18/17 A2975 RMK AO2 RAB0355E04 SLP071 P0000 T01780167
KMLI 230352Z AUTO 09004KT 7SM BKN018 OVC026 18/16 A2977 RMK AO2 RAB35E39 SLP078 P0000 T01830161
KMLI 230252Z 07005KT 10SM OVC026 19/16 A2976 RMK AO2 SLP075 T01890156 53003
KMLI 230152Z 05006KT 9SM BKN018 BKN023 OVC028 19/16 A2974 RMK AO2 SLP070 T01890161
KMLI 230122Z 07010KT 10SM SCT018 OVC031 20/16 A2975 RMK AO2 T02000161
KMLI 230052Z 02005KT 10SM BKN022 OVC029 20/16 A2975 RMK AO2 SLP072 T02000161
KMLI 222352Z 36005KT 10SM OVC026 20/16 A2975 RMK AO2 RAE00 SLP071 P0000 60000 T02000161 10228 20194 55003
KMLI 222252Z 01004KT 8SM -RA OVC027 20/16 A2974 RMK AO2 RAB47 SLP070 P0000 T02000161
KMLI 222152Z 04007KT 10SM OVC027 21/16 A2976 RMK AO2 SLP075 T02060156
KMLI 222052Z 02010KT 10SM BKN023 OVC029 21/16 A2976 RMK AO2 SLP075 T02060156 53001
KMLI 222048Z 02010KT 10SM BKN023 OVC029 21/16 A2975 RMK AO2
KMLI 222041Z 06011KT 10SM SCT023 OVC030 21/16 A2975 RMK AO2 T02110156
KMLI 222032Z 02012G17KT 10SM BKN023 BKN032 OVC095 22/16 A2975 RMK AO2 T02170161
KMLI 222022Z 04008G16KT 10SM SCT023 BKN031 BKN042 22/16 A2975 RMK AO2 T02220161
KMLI 221952Z 01009G18KT 10SM BKN022 BKN027 22/17 A2975 RMK AO2 SLP070 T02220167
KMLI 221852Z 05011G16KT 10SM BKN020 BKN027 OVC044 22/17 A2975 RMK AO2 SLP073 T02170172
KMLI 221829Z 04011KT 10SM BKN016 BKN024 OVC030 21/17 A2977 RMK AO2 T02060167
KMLI 221752Z 04010KT 10SM OVC014 19/16 A2977 RMK AO2 SLP080 60002 T01940161 10194 20172 53001
KMLI 221652Z 04010KT 10SM OVC013 18/16 A2977 RMK AO2 RAE1554 SLP079 P0001 T01830161
KMLI 221620Z 05009KT 9SM SCT007 OVC012 18/16 A2977 RMK AO2 RAE1554 P0001 T01780156
KMLI 221552Z 03006G15KT 2SM -RA BR BKN008 OVC013 18/17 A2977 RMK AO2 RAB13 CIG 005V010 SLP078 P0001 T01780167
KMLI 221518Z 04010G20KT 1 3/4SM -RA BR OVC008 18/17 A2977 RMK AO2 RAB13 CIG 005V012 P0000 T01780167
KMLI 221507Z 03009KT 2SM BR BKN008 OVC012 18/17 A2977 RMK AO2 CIG 005V010 T01780167
KMLI 221452Z 03009KT 2 1/2SM BR OVC010 18/17 A2977 RMK AO2 CIG 007V012 SLP079 60000 T01780167 52003
KMLI 221438Z 04011KT 2 1/2SM BR OVC008 18/17 A2977 RMK AO2 CIG 006V011 T01780167
KMLI 221431Z 04011G17KT 3SM BR OVC008 18/17 A2976 RMK AO2 CIG 006V011 T01780167
KMLI 221414Z 04008KT 2SM BR OVC008 18/17 A2977 RMK AO2 CIG 006V012 T01780167
KMLI 221352Z 04010KT 5SM BR OVC008 18/17 A2977 RMK AO2 CIG 006V011 SLP077 T01780167
KMLI 221310Z 03010KT 3SM BR BKN008 OVC011 18/17 A2977 RMK AO2 CIG 005V009 T01780167
KMLI 221302Z 02007KT 4SM BR OVC010 18/17 A2976 RMK AO2 CIG 006V012 T01780167
KMLI 221252Z 04006KT 2 1/2SM BR OVC010 18/17 A2977 RMK AO2 RAB15E37 CIG 006V012 SLP077 P0000 T01780167
KMLI 221240Z 04008KT 2 1/2SM BR OVC010 18/17 A2976 RMK AO2 RAB15E37 CIG 007V013 P0000 T01780167
KMLI 221152Z 04007KT 10SM OVC010 18/16 A2976 RMK AO2 SLP076 60006 70037 T01780161 10189 20178 53005
KMLI 221052Z 04008KT 10SM OVC012 18/16 A2975 RMK AO2 RAE0959B02E28 SLP070 P0001 T01780161
KMLI 220959Z AUTO 04010KT 10SM BKN011 OVC016 18/16 A2974 RMK AO2 RAE59 CIG 008V013 P0001 T01780161
KMLI 220952Z AUTO 03007G17KT 9SM -RA BKN009 OVC016 18/17 A2974 RMK AO2 CIG 008V011 SLP070 P0003 T01780167
KMLI 220852Z AUTO 05008KT 6SM -RA BR OVC010 18/16 A2975 RMK AO2 SLP071 P0002 60002 T01780161 55000
KMLI 220752Z AUTO 04009KT 7SM -RA OVC010 18/17 A2974 RMK AO2 RAE10B52 CIG 007V013 SLP069 P0000 T01830167
KMLI 220721Z AUTO 05009KT 9SM OVC010 18/17 A2974 RMK AO2 RAE10 CIG 008V013 P0000 T01830167
KMLI 220652Z AUTO 05010KT 5SM -RA BR OVC007 18/17 A2974 RMK AO2 RAB47 CIG 006V011 SLP067 P0000 T01830172
KMLI 220552Z AUTO 05009G15KT 7SM OVC008 19/18 A2975 RMK AO2 CIG 006V010 SLP070 60005 T01890178 10206 20189 402440189 50001
KMLI 220452Z AUTO 05008KT 8SM OVC008 19/18 A2975 RMK AO2 RAB21E47 SLP071 P0001 T01890178
KMLI 220352Z AUTO 06010KT 10SM OVC008 19/18 A2975 RMK AO2 SLP071 T01890178
KMLI 220328Z AUTO 05009KT 10SM OVC009 19/18 A2975 RMK AO2 T01890178
KMLI 220252Z 06011KT 10SM OVC010 21/18 A2974 RMK AO2 SLP068 60004 T02060178 53008
KMLI 220152Z 05012KT 10SM OVC011 19/18 A2973 RMK AO2 RAE22 SLP065 P0000 T01940183
KMLI 220052Z 06010KT 9SM -RA OVC011 20/18 A2972 RMK AO2 RAE27B35 SLP062 P0004 T02000183
KMLI 220028Z 07012G21KT 10SM OVC010 20/18 A2972 RMK AO2 RAE27 CIG 007V015 P0004 T02000183
KMLI 220018Z 06011G19KT 9SM -RA OVC009 20/19 A2972 RMK AO2 CIG 007V012 P0004 T02000189
KMLI 220009Z 06008KT 2SM RA BR OVC009 20/19 A2972 RMK AO2 CIG 006V012 P0003 T02000189
KMLI 212355Z 05008KT 3SM R09/5500VP6000FT -RA BR OVC010 21/19 A2972 RMK AO2 CIG 006V015 P0000 T02060189
KMLI 212352Z 05008G16KT 1 3/4SM R09/5500VP6000FT -RA BR BKN008 OVC012 20/19 A2972 RMK AO2 RAB28 CIG 006V010 SLP060 P0006 60026 T02000189 10233 20194 53002
KMLI 212348Z 06008KT 1 3/4SM R09/5500VP6000FT +RA BR OVC010 20/19 A2972 RMK AO2 RAB28 CIG 006V015 P0003